Ambleve, Belgium
Current Conditions -  °F | °C
As of 2:25 PM on Sunday 21 Dec 2014 (Local Time) from EBLB Reporting Station
Broken Clouds Broken Clouds  
Wind Chill: 32°   Ceiling: 900
Heat Index: 39°   Visibility: 6mi
Dew Point: 36°   Wind: 13mph
Humidity: 87%   Direction: 230°SW
Pressure: 30.33"   Gusts: NA
Location:  50.35°N, 6.17°E
Report Text: EBLB 211325Z AUTO 23011KT 9999 BKN009/// BKN011/// 04/02 Q1027 GRN
Loading
Personal Weather Stations






























Interactive Weather Map New forecast layout! Learn more

10-Day Weather Forecast

Advertisements
Track Severe Weather on mobile